sensor_id;sensor_type;location;lat;lon;timestamp;temperature;humidity
16229;DHT22;8222;51.462;12.630;2022-11-18T00:00:55;7.30;99.90
16229;DHT22;8222;51.462;12.630;2022-11-18T00:03:21;7.20;99.90
16229;DHT22;8222;51.462;12.630;2022-11-18T00:05:56;7.20;99.90
16229;DHT22;8222;51.462;12.630;2022-11-18T00:08:23;7.20;99.90
16229;DHT22;8222;51.462;12.630;2022-11-18T00:10:50;7.10;99.90
16229;DHT22;8222;51.462;12.630;2022-11-18T00:13:16;7.10;99.90
16229;DHT22;8222;51.462;12.630;2022-11-18T00:16:09;7.20;99.90
16229;DHT22;8222;51.462;12.630;2022-11-18T00:18:37;7.20;99.90
16229;DHT22;8222;51.462;12.630;2022-11-18T00:21:06;7.30;99.90
16229;DHT22;8222;51.462;12.630;2022-11-18T00:23:31;7.20;99.90
16229;DHT22;8222;51.462;12.630;2022-11-18T00:26:08;7.30;99.90
16229;DHT22;8222;51.462;12.630;2022-11-18T00:28:34;7.20;99.90
16229;DHT22;8222;51.462;12.630;2022-11-18T00:31:08;7.20;99.90
16229;DHT22;8222;51.462;12.630;2022-11-18T00:33:34;7.20;99.90
16229;DHT22;8222;51.462;12.630;2022-11-18T00:36:06;7.30;99.90
16229;DHT22;8222;51.462;12.630;2022-11-18T00:38:33;7.20;99.90
16229;DHT22;8222;51.462;12.630;2022-11-18T00:41:05;7.30;99.90
16229;DHT22;8222;51.462;12.630;2022-11-18T00:43:31;7.30;99.90
16229;DHT22;8222;51.462;12.630;2022-11-18T00:45:57;7.30;99.90
16229;DHT22;8222;51.462;12.630;2022-11-18T00:48:23;7.30;99.90
16229;DHT22;8222;51.462;12.630;2022-11-18T00:50:55;7.30;99.90
16229;DHT22;8222;51.462;12.630;2022-11-18T00:53:22;7.20;99.90
16229;DHT22;8222;51.462;12.630;2022-11-18T00:55:48;7.20;99.90
16229;DHT22;8222;51.462;12.630;2022-11-18T00:58:15;7.60;99.90
16229;DHT22;8222;51.462;12.630;2022-11-18T01:00:42;7.10;99.90
16229;DHT22;8222;51.462;12.630;2022-11-18T01:03:09;7.00;99.90
16229;DHT22;8222;51.462;12.630;2022-11-18T01:05:35;7.00;99.90
16229;DHT22;8222;51.462;12.630;2022-11-18T01:08:01;6.80;99.90
16229;DHT22;8222;51.462;12.630;2022-11-18T01:10:26;6.80;99.90
16229;DHT22;8222;51.462;12.630;2022-11-18T01:12:52;6.80;99.90
16229;DHT22;8222;51.462;12.630;2022-11-18T01:15:41;6.80;99.90
16229;DHT22;8222;51.462;12.630;2022-11-18T01:18:07;6.80;99.90
16229;DHT22;8222;51.462;12.630;2022-11-18T01:20:33;6.70;99.90
16229;DHT22;8222;51.462;12.630;2022-11-18T01:22:59;6.70;99.90
16229;DHT22;8222;51.462;12.630;2022-11-18T01:25:26;6.80;99.90
16229;DHT22;8222;51.462;12.630;2022-11-18T01:27:51;6.80;99.90
16229;DHT22;8222;51.462;12.630;2022-11-18T01:30:19;6.90;99.90
16229;DHT22;8222;51.462;12.630;2022-11-18T01:32:45;6.90;99.90
16229;DHT22;8222;51.462;12.630;2022-11-18T01:35:11;6.90;99.90
16229;DHT22;8222;51.462;12.630;2022-11-18T01:37:37;6.90;99.90
16229;DHT22;8222;51.462;12.630;2022-11-18T01:40:04;6.80;99.90
16229;DHT22;8222;51.462;12.630;2022-11-18T01:42:30;6.70;99.90
16229;DHT22;8222;51.462;12.630;2022-11-18T01:45:03;6.80;99.90
16229;DHT22;8222;51.462;12.630;2022-11-18T01:47:35;6.80;99.90
16229;DHT22;8222;51.462;12.630;2022-11-18T01:50:03;6.80;99.90
16229;DHT22;8222;51.462;12.630;2022-11-18T01:52:32;6.80;99.90
16229;DHT22;8222;51.462;12.630;2022-11-18T01:55:05;6.80;99.90
16229;DHT22;8222;51.462;12.630;2022-11-18T01:57:34;6.70;99.90
16229;DHT22;8222;51.462;12.630;2022-11-18T02:00:03;6.80;99.90
16229;DHT22;8222;51.462;12.630;2022-11-18T02:02:31;6.70;99.90
16229;DHT22;8222;51.462;12.630;2022-11-18T02:04:58;6.60;99.90
16229;DHT22;8222;51.462;12.630;2022-11-18T02:07:25;7.40;99.90
16229;DHT22;8222;51.462;12.630;2022-11-18T02:09:51;6.70;99.90
16229;DHT22;8222;51.462;12.630;2022-11-18T02:12:18;6.70;99.90
16229;DHT22;8222;51.462;12.630;2022-11-18T02:14:45;6.70;99.90
16229;DHT22;8222;51.462;12.630;2022-11-18T02:17:24;6.70;99.90
16229;DHT22;8222;51.462;12.630;2022-11-18T02:31:19;6.50;99.90
16229;DHT22;8222;51.462;12.630;2022-11-18T02:36:54;6.50;99.90
16229;DHT22;8222;51.462;12.630;2022-11-18T02:39:38;6.60;99.90
16229;DHT22;8222;51.462;12.630;2022-11-18T02:42:08;6.60;99.90
16229;DHT22;8222;51.462;12.630;2022-11-18T02:44:39;6.70;99.90
16229;DHT22;8222;51.462;12.630;2022-11-18T02:47:09;6.40;99.90
16229;DHT22;8222;51.462;12.630;2022-11-18T02:49:42;6.30;99.90
16229;DHT22;8222;51.462;12.630;2022-11-18T02:52:10;6.40;99.90
16229;DHT22;8222;51.462;12.630;2022-11-18T02:54:40;6.30;99.90
16229;DHT22;8222;51.462;12.630;2022-11-18T02:57:07;6.20;99.90
16229;DHT22;8222;51.462;12.630;2022-11-18T02:59:35;7.80;99.90
16229;DHT22;8222;51.462;12.630;2022-11-18T03:02:00;6.30;99.90
16229;DHT22;8222;51.462;12.630;2022-11-18T03:04:26;6.30;99.90
16229;DHT22;8222;51.462;12.630;2022-11-18T03:07:03;6.10;99.90
16229;DHT22;8222;51.462;12.630;2022-11-18T03:09:37;6.20;99.90
16229;DHT22;8222;51.462;12.630;2022-11-18T03:20:29;6.40;99.90
16229;DHT22;8222;51.462;12.630;2022-11-18T03:26:10;6.30;99.90
16229;DHT22;8222;51.462;12.630;2022-11-18T03:28:47;6.30;99.90
16229;DHT22;8222;51.462;12.630;2022-11-18T03:31:27;6.20;99.90
16229;DHT22;8222;51.462;12.630;2022-11-18T03:33:57;6.20;99.90
16229;DHT22;8222;51.462;12.630;2022-11-18T03:36:28;6.00;99.90
16229;DHT22;8222;51.462;12.630;2022-11-18T03:38:57;6.00;99.90
16229;DHT22;8222;51.462;12.630;2022-11-18T03:41:27;5.90;99.90
16229;DHT22;8222;51.462;12.630;2022-11-18T03:44:03;5.90;99.90
16229;DHT22;8222;51.462;12.630;2022-11-18T03:46:44;5.80;99.90
16229;DHT22;8222;51.462;12.630;2022-11-18T03:49:15;5.70;99.90
16229;DHT22;8222;51.462;12.630;2022-11-18T03:51:47;5.80;99.90
16229;DHT22;8222;51.462;12.630;2022-11-18T03:54:20;5.70;99.90
16229;DHT22;8222;51.462;12.630;2022-11-18T03:57:00;5.50;99.90
16229;DHT22;8222;51.462;12.630;2022-11-18T03:59:44;5.50;99.90
16229;DHT22;8222;51.462;12.630;2022-11-18T04:02:20;5.60;99.90
16229;DHT22;8222;51.462;12.630;2022-11-18T04:04:48;5.50;99.90
16229;DHT22;8222;51.462;12.630;2022-11-18T04:09:44;6.10;99.90
16229;DHT22;8222;51.462;12.630;2022-11-18T04:12:14;5.70;99.90
16229;DHT22;8222;51.462;12.630;2022-11-18T04:14:43;5.70;99.90
16229;DHT22;8222;51.462;12.630;2022-11-18T04:17:13;5.80;99.90
16229;DHT22;8222;51.462;12.630;2022-11-18T04:19:39;5.70;99.90
16229;DHT22;8222;51.462;12.630;2022-11-18T04:22:05;5.90;99.90
16229;DHT22;8222;51.462;12.630;2022-11-18T04:24:33;5.60;99.90
16229;DHT22;8222;51.462;12.630;2022-11-18T04:27:00;5.50;99.90
16229;DHT22;8222;51.462;12.630;2022-11-18T04:29:27;5.60;99.90
16229;DHT22;8222;51.462;12.630;2022-11-18T04:31:53;5.60;99.90
16229;DHT22;8222;51.462;12.630;2022-11-18T04:34:19;5.60;99.90
16229;DHT22;8222;51.462;12.630;2022-11-18T04:36:44;5.70;99.90
16229;DHT22;8222;51.462;12.630;2022-11-18T04:39:12;5.70;99.90
16229;DHT22;8222;51.462;12.630;2022-11-18T04:41:39;5.70;99.90
16229;DHT22;8222;51.462;12.630;2022-11-18T04:46:50;5.60;99.90
16229;DHT22;8222;51.462;12.630;2022-11-18T04:49:16;5.60;99.90
16229;DHT22;8222;51.462;12.630;2022-11-18T04:51:42;5.70;99.90
16229;DHT22;8222;51.462;12.630;2022-11-18T04:54:09;5.70;99.90
16229;DHT22;8222;51.462;12.630;2022-11-18T04:56:37;5.70;99.90
16229;DHT22;8222;51.462;12.630;2022-11-18T04:59:05;5.60;99.90
16229;DHT22;8222;51.462;12.630;2022-11-18T05:01:31;5.60;99.90
16229;DHT22;8222;51.462;12.630;2022-11-18T05:03:59;5.70;99.90
16229;DHT22;8222;51.462;12.630;2022-11-18T05:06:25;5.60;99.90
16229;DHT22;8222;51.462;12.630;2022-11-18T05:08:51;5.80;99.90
16229;DHT22;8222;51.462;12.630;2022-11-18T05:11:17;5.80;99.90
16229;DHT22;8222;51.462;12.630;2022-11-18T05:14:03;5.90;99.90
16229;DHT22;8222;51.462;12.630;2022-11-18T05:16:28;6.40;99.90
16229;DHT22;8222;51.462;12.630;2022-11-18T05:18:54;5.60;99.90
16229;DHT22;8222;51.462;12.630;2022-11-18T05:21:20;5.60;99.90
16229;DHT22;8222;51.462;12.630;2022-11-18T05:23:45;5.70;99.90
16229;DHT22;8222;51.462;12.630;2022-11-18T05:26:13;5.50;99.90
16229;DHT22;8222;51.462;12.630;2022-11-18T05:28:39;5.50;99.90
16229;DHT22;8222;51.462;12.630;2022-11-18T05:31:09;5.50;99.90
16229;DHT22;8222;51.462;12.630;2022-11-18T05:33:36;5.50;99.90
16229;DHT22;8222;51.462;12.630;2022-11-18T05:36:04;6.00;99.90
16229;DHT22;8222;51.462;12.630;2022-11-18T05:38:31;5.60;99.90
16229;DHT22;8222;51.462;12.630;2022-11-18T05:40:57;5.60;99.90
16229;DHT22;8222;51.462;12.630;2022-11-18T05:43:23;5.50;99.90
16229;DHT22;8222;51.462;12.630;2022-11-18T05:45:50;6.10;99.90
16229;DHT22;8222;51.462;12.630;2022-11-18T05:48:17;5.40;99.90
16229;DHT22;8222;51.462;12.630;2022-11-18T05:50:47;5.50;99.90
16229;DHT22;8222;51.462;12.630;2022-11-18T05:53:13;5.40;99.90
16229;DHT22;8222;51.462;12.630;2022-11-18T05:56:16;5.30;99.90
16229;DHT22;8222;51.462;12.630;2022-11-18T05:58:45;5.00;99.90
16229;DHT22;8222;51.462;12.630;2022-11-18T06:01:12;5.10;99.90
16229;DHT22;8222;51.462;12.630;2022-11-18T06:03:40;5.10;99.90
16229;DHT22;8222;51.462;12.630;2022-11-18T06:06:08;5.10;99.90
16229;DHT22;8222;51.462;12.630;2022-11-18T06:08:38;5.00;99.90
16229;DHT22;8222;51.462;12.630;2022-11-18T06:11:07;4.90;99.90
16229;DHT22;8222;51.462;12.630;2022-11-18T06:13:38;4.80;99.90
16229;DHT22;8222;51.462;12.630;2022-11-18T06:16:05;5.00;99.90
16229;DHT22;8222;51.462;12.630;2022-11-18T06:18:31;5.00;99.90
16229;DHT22;8222;51.462;12.630;2022-11-18T06:21:00;5.00;99.90
16229;DHT22;8222;51.462;12.630;2022-11-18T06:23:30;5.10;99.90
16229;DHT22;8222;51.462;12.630;2022-11-18T06:25:58;5.10;99.90
16229;DHT22;8222;51.462;12.630;2022-11-18T06:28:24;5.10;99.90
16229;DHT22;8222;51.462;12.630;2022-11-18T06:30:50;5.00;99.90
16229;DHT22;8222;51.462;12.630;2022-11-18T06:33:16;5.40;99.90
16229;DHT22;8222;51.462;12.630;2022-11-18T06:35:44;5.10;99.90
16229;DHT22;8222;51.462;12.630;2022-11-18T06:38:10;5.00;99.90
16229;DHT22;8222;51.462;12.630;2022-11-18T06:40:36;5.10;99.90
16229;DHT22;8222;51.462;12.630;2022-11-18T06:43:06;5.10;99.90
16229;DHT22;8222;51.462;12.630;2022-11-18T06:45:50;5.20;99.90
16229;DHT22;8222;51.462;12.630;2022-11-18T06:48:35;5.20;99.90
16229;DHT22;8222;51.462;12.630;2022-11-18T06:51:06;5.10;99.90
16229;DHT22;8222;51.462;12.630;2022-11-18T06:53:33;5.00;99.90
16229;DHT22;8222;51.462;12.630;2022-11-18T06:56:06;5.20;99.90
16229;DHT22;8222;51.462;12.630;2022-11-18T06:58:32;5.00;99.90
16229;DHT22;8222;51.462;12.630;2022-11-18T07:01:11;5.00;99.90
16229;DHT22;8222;51.462;12.630;2022-11-18T07:03:38;4.90;99.90
16229;DHT22;8222;51.462;12.630;2022-11-18T07:06:04;4.80;99.90
16229;DHT22;8222;51.462;12.630;2022-11-18T07:08:30;4.80;99.90
16229;DHT22;8222;51.462;12.630;2022-11-18T07:10:56;4.70;99.90
16229;DHT22;8222;51.462;12.630;2022-11-18T07:13:23;4.70;99.90
16229;DHT22;8222;51.462;12.630;2022-11-18T07:15:48;4.90;99.90
16229;DHT22;8222;51.462;12.630;2022-11-18T07:18:14;4.50;99.90
16229;DHT22;8222;51.462;12.630;2022-11-18T07:20:40;4.50;99.90
16229;DHT22;8222;51.462;12.630;2022-11-18T07:23:05;4.50;99.90
16229;DHT22;8222;51.462;12.630;2022-11-18T07:25:31;5.40;99.90
16229;DHT22;8222;51.462;12.630;2022-11-18T07:27:57;4.70;99.90
16229;DHT22;8222;51.462;12.630;2022-11-18T07:30:23;4.60;99.90
16229;DHT22;8222;51.462;12.630;2022-11-18T07:32:49;4.50;99.90
16229;DHT22;8222;51.462;12.630;2022-11-18T07:35:14;4.30;99.90
16229;DHT22;8222;51.462;12.630;2022-11-18T07:37:42;4.40;99.90
16229;DHT22;8222;51.462;12.630;2022-11-18T07:40:08;4.50;99.90
16229;DHT22;8222;51.462;12.630;2022-11-18T07:42:36;4.50;99.90
16229;DHT22;8222;51.462;12.630;2022-11-18T07:45:09;4.60;99.90
16229;DHT22;8222;51.462;12.630;2022-11-18T07:47:35;4.60;99.90
16229;DHT22;8222;51.462;12.630;2022-11-18T07:50:04;5.10;99.90
16229;DHT22;8222;51.462;12.630;2022-11-18T07:52:29;4.70;99.90
16229;DHT22;8222;51.462;12.630;2022-11-18T07:54:55;4.60;99.90
16229;DHT22;8222;51.462;12.630;2022-11-18T07:57:21;4.50;99.90
16229;DHT22;8222;51.462;12.630;2022-11-18T07:59:46;4.50;99.90
16229;DHT22;8222;51.462;12.630;2022-11-18T08:02:12;4.50;99.90
16229;DHT22;8222;51.462;12.630;2022-11-18T08:04:38;4.50;99.90
16229;DHT22;8222;51.462;12.630;2022-11-18T08:07:04;4.50;99.90
16229;DHT22;8222;51.462;12.630;2022-11-18T08:09:30;4.20;99.90
16229;DHT22;8222;51.462;12.630;2022-11-18T08:11:55;4.40;99.90
16229;DHT22;8222;51.462;12.630;2022-11-18T08:14:21;4.10;99.90
16229;DHT22;8222;51.462;12.630;2022-11-18T08:16:49;4.10;99.90
16229;DHT22;8222;51.462;12.630;2022-11-18T08:19:14;4.00;99.90
16229;DHT22;8222;51.462;12.630;2022-11-18T08:21:40;3.90;99.90
16229;DHT22;8222;51.462;12.630;2022-11-18T08:24:08;3.60;99.90
16229;DHT22;8222;51.462;12.630;2022-11-18T08:26:34;3.50;99.90
16229;DHT22;8222;51.462;12.630;2022-11-18T08:29:00;3.40;99.90
16229;DHT22;8222;51.462;12.630;2022-11-18T08:31:28;3.60;99.90
16229;DHT22;8222;51.462;12.630;2022-11-18T08:36:22;3.20;99.90
16229;DHT22;8222;51.462;12.630;2022-11-18T08:38:50;3.30;99.90
16229;DHT22;8222;51.462;12.630;2022-11-18T08:41:20;3.30;99.90
16229;DHT22;8222;51.462;12.630;2022-11-18T08:43:47;3.40;99.90
16229;DHT22;8222;51.462;12.630;2022-11-18T08:46:13;3.20;99.90
16229;DHT22;8222;51.462;12.630;2022-11-18T08:48:38;3.00;99.90
16229;DHT22;8222;51.462;12.630;2022-11-18T08:51:04;3.10;99.90
16229;DHT22;8222;51.462;12.630;2022-11-18T08:53:30;3.10;99.90
16229;DHT22;8222;51.462;12.630;2022-11-18T08:55:58;3.30;99.90
16229;DHT22;8222;51.462;12.630;2022-11-18T08:58:26;3.20;99.90
16229;DHT22;8222;51.462;12.630;2022-11-18T09:00:52;3.40;99.90
16229;DHT22;8222;51.462;12.630;2022-11-18T09:03:18;3.10;99.90
16229;DHT22;8222;51.462;12.630;2022-11-18T09:05:44;3.10;99.90
16229;DHT22;8222;51.462;12.630;2022-11-18T09:08:10;3.10;99.90
16229;DHT22;8222;51.462;12.630;2022-11-18T09:10:36;3.10;99.90
16229;DHT22;8222;51.462;12.630;2022-11-18T09:13:04;2.20;99.90
16229;DHT22;8222;51.462;12.630;2022-11-18T09:15:30;3.10;99.90
16229;DHT22;8222;51.462;12.630;2022-11-18T09:17:56;3.10;99.90
16229;DHT22;8222;51.462;12.630;2022-11-18T09:20:22;3.20;99.90
16229;DHT22;8222;51.462;12.630;2022-11-18T09:22:48;3.20;99.90
16229;DHT22;8222;51.462;12.630;2022-11-18T09:25:14;3.10;99.90
16229;DHT22;8222;51.462;12.630;2022-11-18T09:27:40;3.20;99.90
16229;DHT22;8222;51.462;12.630;2022-11-18T09:30:06;3.00;99.90
16229;DHT22;8222;51.462;12.630;2022-11-18T09:32:32;3.00;99.90
16229;DHT22;8222;51.462;12.630;2022-11-18T09:35:00;3.70;99.90
16229;DHT22;8222;51.462;12.630;2022-11-18T09:37:26;3.00;99.90
16229;DHT22;8222;51.462;12.630;2022-11-18T09:39:51;3.10;99.90
16229;DHT22;8222;51.462;12.630;2022-11-18T09:47:47;3.10;99.90
16229;DHT22;8222;51.462;12.630;2022-11-18T09:50:19;2.70;99.90
16229;DHT22;8222;51.462;12.630;2022-11-18T09:55:17;3.00;99.90
16229;DHT22;8222;51.462;12.630;2022-11-18T09:57:45;3.10;99.90
16229;DHT22;8222;51.462;12.630;2022-11-18T10:00:20;3.20;99.90
16229;DHT22;8222;51.462;12.630;2022-11-18T10:02:52;3.40;99.90
16229;DHT22;8222;51.462;12.630;2022-11-18T10:05:24;4.00;99.90
16229;DHT22;8222;51.462;12.630;2022-11-18T10:13:07;3.20;99.90
16229;DHT22;8222;51.462;12.630;2022-11-18T10:15:38;3.10;99.90
16229;DHT22;8222;51.462;12.630;2022-11-18T10:18:26;3.10;99.90
16229;DHT22;8222;51.462;12.630;2022-11-18T10:21:22;3.20;99.90
16229;DHT22;8222;51.462;12.630;2022-11-18T10:24:00;3.10;99.90
16229;DHT22;8222;51.462;12.630;2022-11-18T10:26:38;3.10;99.90
16229;DHT22;8222;51.462;12.630;2022-11-18T10:29:04;3.00;99.90
16229;DHT22;8222;51.462;12.630;2022-11-18T10:32:00;3.00;99.90
16229;DHT22;8222;51.462;12.630;2022-11-18T10:34:26;3.20;99.90
16229;DHT22;8222;51.462;12.630;2022-11-18T10:37:22;3.20;99.90
16229;DHT22;8222;51.462;12.630;2022-11-18T10:39:55;3.10;99.90
16229;DHT22;8222;51.462;12.630;2022-11-18T10:42:44;3.30;99.90
16229;DHT22;8222;51.462;12.630;2022-11-18T10:45:27;3.10;99.90
16229;DHT22;8222;51.462;12.630;2022-11-18T10:48:06;3.10;99.90
16229;DHT22;8222;51.462;12.630;2022-11-18T10:50:43;3.10;99.90
16229;DHT22;8222;51.462;12.630;2022-11-18T10:53:33;3.00;99.90
16229;DHT22;8222;51.462;12.630;2022-11-18T10:56:03;2.90;99.90
16229;DHT22;8222;51.462;12.630;2022-11-18T10:58:31;2.90;99.90
16229;DHT22;8222;51.462;12.630;2022-11-18T11:01:26;3.00;99.90
16229;DHT22;8222;51.462;12.630;2022-11-18T11:04:14;3.00;99.90
16229;DHT22;8222;51.462;12.630;2022-11-18T11:06:44;3.10;99.90
16229;DHT22;8222;51.462;12.630;2022-11-18T11:09:32;3.00;99.90
16229;DHT22;8222;51.462;12.630;2022-11-18T11:12:13;3.10;99.90
16229;DHT22;8222;51.462;12.630;2022-11-18T11:14:54;3.10;99.90
16229;DHT22;8222;51.462;12.630;2022-11-18T11:20:02;2.90;99.90
16229;DHT22;8222;51.462;12.630;2022-11-18T11:22:28;2.80;99.90
16229;DHT22;8222;51.462;12.630;2022-11-18T11:24:57;2.60;99.90
16229;DHT22;8222;51.462;12.630;2022-11-18T11:35:40;2.90;99.90
16229;DHT22;8222;51.462;12.630;2022-11-18T11:41:23;2.80;99.90
16229;DHT22;8222;51.462;12.630;2022-11-18T11:44:02;3.30;99.90
16229;DHT22;8222;51.462;12.630;2022-11-18T12:00:43;2.80;99.90
16229;DHT22;8222;51.462;12.630;2022-11-18T12:03:38;2.90;99.90
16229;DHT22;8222;51.462;12.630;2022-11-18T12:06:09;2.90;99.90
16229;DHT22;8222;51.462;12.630;2022-11-18T12:08:36;2.80;99.90
16229;DHT22;8222;51.462;12.630;2022-11-18T12:11:41;2.70;99.90
16229;DHT22;8222;51.462;12.630;2022-11-18T12:14:46;2.50;99.90
16229;DHT22;8222;51.462;12.630;2022-11-18T12:17:24;2.50;99.90
16229;DHT22;8222;51.462;12.630;2022-11-18T12:19:53;2.50;99.90
16229;DHT22;8222;51.462;12.630;2022-11-18T12:22:20;2.60;99.90
16229;DHT22;8222;51.462;12.630;2022-11-18T12:24:46;2.70;99.90
16229;DHT22;8222;51.462;12.630;2022-11-18T12:27:50;2.60;99.90
16229;DHT22;8222;51.462;12.630;2022-11-18T12:29:59;2.50;99.90
16229;DHT22;8222;51.462;12.630;2022-11-18T12:40:41;2.40;99.90
16229;DHT22;8222;51.462;12.630;2022-11-18T12:52:01;2.20;99.90
16229;DHT22;8222;51.462;12.630;2022-11-18T12:54:53;2.30;99.90
16229;DHT22;8222;51.462;12.630;2022-11-18T12:59:45;2.60;99.90
16229;DHT22;8222;51.462;12.630;2022-11-18T13:04:39;2.60;99.90
16229;DHT22;8222;51.462;12.630;2022-11-18T13:07:08;2.50;99.90
16229;DHT22;8222;51.462;12.630;2022-11-18T13:09:55;2.40;99.90
16229;DHT22;8222;51.462;12.630;2022-11-18T13:12:24;2.40;99.90
16229;DHT22;8222;51.462;12.630;2022-11-18T13:14:50;2.20;99.90
16229;DHT22;8222;51.462;12.630;2022-11-18T13:17:42;2.10;99.90
16229;DHT22;8222;51.462;12.630;2022-11-18T13:22:53;1.90;99.90
16229;DHT22;8222;51.462;12.630;2022-11-18T13:25:38;1.90;99.90
16229;DHT22;8222;51.462;12.630;2022-11-18T13:30:31;1.90;99.90
16229;DHT22;8222;51.462;12.630;2022-11-18T13:32:58;1.90;99.90
16229;DHT22;8222;51.462;12.630;2022-11-18T13:35:35;2.00;99.90
16229;DHT22;8222;51.462;12.630;2022-11-18T13:38:22;2.20;99.90
16229;DHT22;8222;51.462;12.630;2022-11-18T14:20:36;2.00;99.90
16229;DHT22;8222;51.462;12.630;2022-11-18T14:23:03;1.90;99.90
16229;DHT22;8222;51.462;12.630;2022-11-18T14:25:34;2.00;99.90
16229;DHT22;8222;51.462;12.630;2022-11-18T14:28:17;2.00;99.90
16229;DHT22;8222;51.462;12.630;2022-11-18T14:31:08;2.60;99.90
16229;DHT22;8222;51.462;12.630;2022-11-18T14:36:47;1.90;99.90
16229;DHT22;8222;51.462;12.630;2022-11-18T14:39:30;2.00;99.90
16229;DHT22;8222;51.462;12.630;2022-11-18T14:41:56;0.90;99.90
16229;DHT22;8222;51.462;12.630;2022-11-18T14:44:24;1.80;99.90
16229;DHT22;8222;51.462;12.630;2022-11-18T14:46:54;1.70;99.90
16229;DHT22;8222;51.462;12.630;2022-11-18T14:49:23;1.80;99.90
16229;DHT22;8222;51.462;12.630;2022-11-18T14:51:50;1.80;99.90
16229;DHT22;8222;51.462;12.630;2022-11-18T14:54:18;1.90;99.90
16229;DHT22;8222;51.462;12.630;2022-11-18T14:56:45;1.70;99.90
16229;DHT22;8222;51.462;12.630;2022-11-18T14:59:14;1.70;99.90
16229;DHT22;8222;51.462;12.630;2022-11-18T15:01:41;2.50;99.90
16229;DHT22;8222;51.462;12.630;2022-11-18T15:04:09;1.80;99.90
16229;DHT22;8222;51.462;12.630;2022-11-18T15:06:35;2.00;99.90
16229;DHT22;8222;51.462;12.630;2022-11-18T15:09:01;1.90;99.90
16229;DHT22;8222;51.462;12.630;2022-11-18T15:11:27;2.00;99.90
16229;DHT22;8222;51.462;12.630;2022-11-18T15:13:52;2.20;99.90
16229;DHT22;8222;51.462;12.630;2022-11-18T15:16:24;2.30;99.90
16229;DHT22;8222;51.462;12.630;2022-11-18T15:18:56;2.20;99.90
16229;DHT22;8222;51.462;12.630;2022-11-18T15:21:22;2.10;99.90
16229;DHT22;8222;51.462;12.630;2022-11-18T15:23:50;2.10;99.90
16229;DHT22;8222;51.462;12.630;2022-11-18T15:26:27;1.90;99.90
16229;DHT22;8222;51.462;12.630;2022-11-18T15:28:55;1.80;99.90
16229;DHT22;8222;51.462;12.630;2022-11-18T15:31:23;1.70;99.90
16229;DHT22;8222;51.462;12.630;2022-11-18T15:33:49;1.80;99.90
16229;DHT22;8222;51.462;12.630;2022-11-18T15:36:22;1.90;99.90
16229;DHT22;8222;51.462;12.630;2022-11-18T15:38:49;1.80;99.90
16229;DHT22;8222;51.462;12.630;2022-11-18T15:41:26;1.90;99.90
16229;DHT22;8222;51.462;12.630;2022-11-18T15:43:53;1.90;99.90
16229;DHT22;8222;51.462;12.630;2022-11-18T15:46:22;2.00;99.90
16229;DHT22;8222;51.462;12.630;2022-11-18T15:48:50;1.80;99.90
16229;DHT22;8222;51.462;12.630;2022-11-18T15:51:16;1.80;99.90
16229;DHT22;8222;51.462;12.630;2022-11-18T15:53:42;1.90;99.90
16229;DHT22;8222;51.462;12.630;2022-11-18T16:01:26;1.80;99.90
16229;DHT22;8222;51.462;12.630;2022-11-18T16:03:52;1.70;99.90
16229;DHT22;8222;51.462;12.630;2022-11-18T16:06:18;1.80;99.90
16229;DHT22;8222;51.462;12.630;2022-11-18T16:08:45;1.80;99.90
16229;DHT22;8222;51.462;12.630;2022-11-18T16:11:15;1.70;99.90
16229;DHT22;8222;51.462;12.630;2022-11-18T16:14:05;1.70;99.90
16229;DHT22;8222;51.462;12.630;2022-11-18T16:16:31;1.60;99.90
16229;DHT22;8222;51.462;12.630;2022-11-18T16:19:01;2.80;99.90
16229;DHT22;8222;51.462;12.630;2022-11-18T16:21:28;1.70;99.90
16229;DHT22;8222;51.462;12.630;2022-11-18T16:23:55;1.80;99.90
16229;DHT22;8222;51.462;12.630;2022-11-18T16:26:21;1.60;99.90
16229;DHT22;8222;51.462;12.630;2022-11-18T16:28:46;1.70;99.90
16229;DHT22;8222;51.462;12.630;2022-11-18T16:31:12;1.80;99.90
16229;DHT22;8222;51.462;12.630;2022-11-18T16:33:58;1.80;99.90
16229;DHT22;8222;51.462;12.630;2022-11-18T16:36:26;2.50;99.90
16229;DHT22;8222;51.462;12.630;2022-11-18T16:38:52;1.80;99.90
16229;DHT22;8222;51.462;12.630;2022-11-18T16:41:18;1.80;99.90
16229;DHT22;8222;51.462;12.630;2022-11-18T16:43:56;1.90;99.90
16229;DHT22;8222;51.462;12.630;2022-11-18T16:46:25;1.90;99.90
16229;DHT22;8222;51.462;12.630;2022-11-18T16:48:50;1.80;99.90
16229;DHT22;8222;51.462;12.630;2022-11-18T16:51:25;1.70;99.90
16229;DHT22;8222;51.462;12.630;2022-11-18T16:53:51;1.80;99.90
16229;DHT22;8222;51.462;12.630;2022-11-18T16:56:20;1.80;99.90
16229;DHT22;8222;51.462;12.630;2022-11-18T16:58:47;1.70;99.90
16229;DHT22;8222;51.462;12.630;2022-11-18T17:01:13;1.70;99.90
16229;DHT22;8222;51.462;12.630;2022-11-18T17:03:41;1.80;99.90
16229;DHT22;8222;51.462;12.630;2022-11-18T17:06:07;1.70;99.90
16229;DHT22;8222;51.462;12.630;2022-11-18T17:08:34;2.10;99.90
16229;DHT22;8222;51.462;12.630;2022-11-18T17:11:08;1.70;99.90
16229;DHT22;8222;51.462;12.630;2022-11-18T17:13:35;1.70;99.90
16229;DHT22;8222;51.462;12.630;2022-11-18T17:16:28;1.80;99.90
16229;DHT22;8222;51.462;12.630;2022-11-18T17:18:57;1.70;99.90
16229;DHT22;8222;51.462;12.630;2022-11-18T17:21:23;1.90;99.90
16229;DHT22;8222;51.462;12.630;2022-11-18T17:23:49;1.90;99.90
16229;DHT22;8222;51.462;12.630;2022-11-18T17:26:19;1.70;99.90
16229;DHT22;8222;51.462;12.630;2022-11-18T17:28:45;1.70;99.90
16229;DHT22;8222;51.462;12.630;2022-11-18T17:31:17;1.60;99.90
16229;DHT22;8222;51.462;12.630;2022-11-18T17:33:43;1.70;99.90
16229;DHT22;8222;51.462;12.630;2022-11-18T17:36:12;1.80;99.90
16229;DHT22;8222;51.462;12.630;2022-11-18T17:38:41;1.90;99.90
16229;DHT22;8222;51.462;12.630;2022-11-18T17:41:08;1.90;99.90
16229;DHT22;8222;51.462;12.630;2022-11-18T17:43:39;2.80;99.90
16229;DHT22;8222;51.462;12.630;2022-11-18T17:46:08;2.00;99.90
16229;DHT22;8222;51.462;12.630;2022-11-18T17:48:34;2.00;99.90
16229;DHT22;8222;51.462;12.630;2022-11-18T17:51:03;1.90;99.90
16229;DHT22;8222;51.462;12.630;2022-11-18T17:53:29;1.90;99.90
16229;DHT22;8222;51.462;12.630;2022-11-18T17:55:55;1.90;99.90
16229;DHT22;8222;51.462;12.630;2022-11-18T17:58:20;1.80;99.90
16229;DHT22;8222;51.462;12.630;2022-11-18T18:00:46;1.80;99.90
16229;DHT22;8222;51.462;12.630;2022-11-18T18:03:12;1.70;99.90
16229;DHT22;8222;51.462;12.630;2022-11-18T18:05:37;1.80;99.90
16229;DHT22;8222;51.462;12.630;2022-11-18T18:08:03;1.60;99.90
16229;DHT22;8222;51.462;12.630;2022-11-18T18:10:32;1.60;99.90
16229;DHT22;8222;51.462;12.630;2022-11-18T18:12:57;1.50;99.90
16229;DHT22;8222;51.462;12.630;2022-11-18T18:15:42;2.00;99.90
16229;DHT22;8222;51.462;12.630;2022-11-18T18:18:07;1.70;99.90
16229;DHT22;8222;51.462;12.630;2022-11-18T18:20:33;2.20;99.90
16229;DHT22;8222;51.462;12.630;2022-11-18T18:22:59;1.80;99.90
16229;DHT22;8222;51.462;12.630;2022-11-18T18:25:25;1.80;99.90
16229;DHT22;8222;51.462;12.630;2022-11-18T18:27:50;1.90;99.90
16229;DHT22;8222;51.462;12.630;2022-11-18T18:30:18;1.80;99.90
16229;DHT22;8222;51.462;12.630;2022-11-18T18:32:44;1.60;99.90